sensor_id;sensor_type;location;lat;lon;timestamp;temperature;humidity
23873;DHT22;42884;50.718;4.630;2024-02-21T00:00:47;10.00;99.90
23873;DHT22;42884;50.718;4.630;2024-02-21T00:03:13;10.00;99.90
23873;DHT22;42884;50.718;4.630;2024-02-21T00:05:39;10.00;99.90
23873;DHT22;42884;50.718;4.630;2024-02-21T00:08:05;9.90;99.90
23873;DHT22;42884;50.718;4.630;2024-02-21T00:10:31;9.90;99.90
23873;DHT22;42884;50.718;4.630;2024-02-21T00:13:00;9.90;99.90
23873;DHT22;42884;50.718;4.630;2024-02-21T00:15:26;10.00;99.90
23873;DHT22;42884;50.718;4.630;2024-02-21T00:17:52;10.00;99.90
23873;DHT22;42884;50.718;4.630;2024-02-21T00:20:18;9.90;99.90
23873;DHT22;42884;50.718;4.630;2024-02-21T00:22:44;9.90;99.90
23873;DHT22;42884;50.718;4.630;2024-02-21T00:25:10;9.90;99.90
23873;DHT22;42884;50.718;4.630;2024-02-21T00:27:35;9.80;99.90
23873;DHT22;42884;50.718;4.630;2024-02-21T00:30:02;9.90;99.90
23873;DHT22;42884;50.718;4.630;2024-02-21T00:32:28;10.00;99.90
23873;DHT22;42884;50.718;4.630;2024-02-21T00:34:54;9.90;99.90
23873;DHT22;42884;50.718;4.630;2024-02-21T00:37:19;9.90;99.90
23873;DHT22;42884;50.718;4.630;2024-02-21T00:39:45;10.10;99.90
23873;DHT22;42884;50.718;4.630;2024-02-21T00:42:11;10.10;99.90
23873;DHT22;42884;50.718;4.630;2024-02-21T00:44:36;10.00;99.90
23873;DHT22;42884;50.718;4.630;2024-02-21T00:47:02;10.00;99.90
23873;DHT22;42884;50.718;4.630;2024-02-21T00:49:28;10.10;99.90
23873;DHT22;42884;50.718;4.630;2024-02-21T00:51:54;10.20;99.90
23873;DHT22;42884;50.718;4.630;2024-02-21T00:54:19;10.20;99.90
23873;DHT22;42884;50.718;4.630;2024-02-21T00:56:45;10.10;99.90
23873;DHT22;42884;50.718;4.630;2024-02-21T00:59:11;10.20;99.90
23873;DHT22;42884;50.718;4.630;2024-02-21T01:01:36;10.10;99.90
23873;DHT22;42884;50.718;4.630;2024-02-21T01:04:02;10.00;99.90
23873;DHT22;42884;50.718;4.630;2024-02-21T01:06:28;10.00;99.90
23873;DHT22;42884;50.718;4.630;2024-02-21T01:08:54;10.00;99.90
23873;DHT22;42884;50.718;4.630;2024-02-21T01:11:20;10.00;99.90
23873;DHT22;42884;50.718;4.630;2024-02-21T01:13:45;10.00;99.90
23873;DHT22;42884;50.718;4.630;2024-02-21T01:16:11;10.10;99.90
23873;DHT22;42884;50.718;4.630;2024-02-21T01:18:37;10.00;99.90
23873;DHT22;42884;50.718;4.630;2024-02-21T01:21:05;9.90;99.90
23873;DHT22;42884;50.718;4.630;2024-02-21T01:23:34;9.90;99.90
23873;DHT22;42884;50.718;4.630;2024-02-21T01:26:00;9.80;99.90
23873;DHT22;42884;50.718;4.630;2024-02-21T01:28:26;9.90;99.90
23873;DHT22;42884;50.718;4.630;2024-02-21T01:30:52;9.70;99.90
23873;DHT22;42884;50.718;4.630;2024-02-21T01:33:17;9.90;99.90
23873;DHT22;42884;50.718;4.630;2024-02-21T01:35:44;9.80;99.90
23873;DHT22;42884;50.718;4.630;2024-02-21T01:38:12;9.90;99.90
23873;DHT22;42884;50.718;4.630;2024-02-21T01:40:38;9.90;99.90
23873;DHT22;42884;50.718;4.630;2024-02-21T01:43:04;9.90;99.90
23873;DHT22;42884;50.718;4.630;2024-02-21T01:45:40;9.80;99.90
23873;DHT22;42884;50.718;4.630;2024-02-21T01:48:06;9.90;99.90
23873;DHT22;42884;50.718;4.630;2024-02-21T01:50:32;10.00;99.90
23873;DHT22;42884;50.718;4.630;2024-02-21T01:52:59;10.00;99.90
23873;DHT22;42884;50.718;4.630;2024-02-21T01:55:25;9.90;99.90
23873;DHT22;42884;50.718;4.630;2024-02-21T01:57:51;9.80;99.90
23873;DHT22;42884;50.718;4.630;2024-02-21T02:00:17;9.80;99.90
23873;DHT22;42884;50.718;4.630;2024-02-21T02:02:43;9.80;99.90
23873;DHT22;42884;50.718;4.630;2024-02-21T02:05:10;9.80;99.90
23873;DHT22;42884;50.718;4.630;2024-02-21T02:07:36;9.70;99.90
23873;DHT22;42884;50.718;4.630;2024-02-21T02:10:03;9.70;99.90
23873;DHT22;42884;50.718;4.630;2024-02-21T02:12:28;9.80;99.90
23873;DHT22;42884;50.718;4.630;2024-02-21T02:15:01;9.80;99.90
23873;DHT22;42884;50.718;4.630;2024-02-21T02:17:30;9.80;99.90
23873;DHT22;42884;50.718;4.630;2024-02-21T02:19:56;9.80;99.90
23873;DHT22;42884;50.718;4.630;2024-02-21T02:22:25;9.80;99.90
23873;DHT22;42884;50.718;4.630;2024-02-21T02:24:53;9.70;99.90
23873;DHT22;42884;50.718;4.630;2024-02-21T02:27:19;9.70;99.90
23873;DHT22;42884;50.718;4.630;2024-02-21T02:29:45;9.70;99.90
23873;DHT22;42884;50.718;4.630;2024-02-21T02:32:11;9.80;99.90
23873;DHT22;42884;50.718;4.630;2024-02-21T02:34:37;9.80;99.90
23873;DHT22;42884;50.718;4.630;2024-02-21T02:37:03;9.80;99.90
23873;DHT22;42884;50.718;4.630;2024-02-21T02:39:29;9.90;99.90
23873;DHT22;42884;50.718;4.630;2024-02-21T02:41:54;9.90;99.90
23873;DHT22;42884;50.718;4.630;2024-02-21T02:44:20;9.90;99.90
23873;DHT22;42884;50.718;4.630;2024-02-21T02:46:46;10.00;99.90
23873;DHT22;42884;50.718;4.630;2024-02-21T02:49:11;10.00;99.90
23873;DHT22;42884;50.718;4.630;2024-02-21T02:51:41;9.90;99.90
23873;DHT22;42884;50.718;4.630;2024-02-21T02:54:08;9.90;99.90
23873;DHT22;42884;50.718;4.630;2024-02-21T02:56:33;9.80;99.90
23873;DHT22;42884;50.718;4.630;2024-02-21T02:58:59;9.80;99.90
23873;DHT22;42884;50.718;4.630;2024-02-21T03:01:25;9.90;99.90
23873;DHT22;42884;50.718;4.630;2024-02-21T03:03:50;10.00;99.90
23873;DHT22;42884;50.718;4.630;2024-02-21T03:06:16;9.90;99.90
23873;DHT22;42884;50.718;4.630;2024-02-21T03:08:42;10.00;99.90
23873;DHT22;42884;50.718;4.630;2024-02-21T03:11:08;10.00;99.90
23873;DHT22;42884;50.718;4.630;2024-02-21T03:13:34;10.10;99.90
23873;DHT22;42884;50.718;4.630;2024-02-21T03:15:59;10.10;99.90
23873;DHT22;42884;50.718;4.630;2024-02-21T03:18:25;10.10;99.90
23873;DHT22;42884;50.718;4.630;2024-02-21T03:20:51;9.90;99.90
23873;DHT22;42884;50.718;4.630;2024-02-21T03:23:16;10.00;99.90
23873;DHT22;42884;50.718;4.630;2024-02-21T03:25:42;10.00;99.90
23873;DHT22;42884;50.718;4.630;2024-02-21T03:28:08;10.10;99.90
23873;DHT22;42884;50.718;4.630;2024-02-21T03:30:34;10.10;99.90
23873;DHT22;42884;50.718;4.630;2024-02-21T03:32:59;10.10;99.90
23873;DHT22;42884;50.718;4.630;2024-02-21T03:35:26;9.90;99.90
23873;DHT22;42884;50.718;4.630;2024-02-21T03:37:53;9.90;99.90
23873;DHT22;42884;50.718;4.630;2024-02-21T03:40:18;9.90;99.90
23873;DHT22;42884;50.718;4.630;2024-02-21T03:42:44;9.90;99.90
23873;DHT22;42884;50.718;4.630;2024-02-21T03:45:10;9.80;99.90
23873;DHT22;42884;50.718;4.630;2024-02-21T03:47:36;9.80;99.90
23873;DHT22;42884;50.718;4.630;2024-02-21T03:50:01;9.80;99.90
23873;DHT22;42884;50.718;4.630;2024-02-21T03:52:27;9.80;99.90
23873;DHT22;42884;50.718;4.630;2024-02-21T03:54:53;9.90;99.90
23873;DHT22;42884;50.718;4.630;2024-02-21T03:57:20;9.90;99.90
23873;DHT22;42884;50.718;4.630;2024-02-21T03:59:46;9.90;99.90
23873;DHT22;42884;50.718;4.630;2024-02-21T04:02:15;9.90;99.90
23873;DHT22;42884;50.718;4.630;2024-02-21T04:04:46;9.80;99.90
23873;DHT22;42884;50.718;4.630;2024-02-21T04:07:14;9.90;99.90
23873;DHT22;42884;50.718;4.630;2024-02-21T04:09:39;9.90;99.90
23873;DHT22;42884;50.718;4.630;2024-02-21T04:12:07;9.80;99.90
23873;DHT22;42884;50.718;4.630;2024-02-21T04:14:33;9.70;99.90
23873;DHT22;42884;50.718;4.630;2024-02-21T04:17:00;9.90;99.90
23873;DHT22;42884;50.718;4.630;2024-02-21T04:19:26;9.90;99.90
23873;DHT22;42884;50.718;4.630;2024-02-21T04:21:51;9.90;99.90
23873;DHT22;42884;50.718;4.630;2024-02-21T04:24:17;9.80;99.90
23873;DHT22;42884;50.718;4.630;2024-02-21T04:26:43;9.90;99.90
23873;DHT22;42884;50.718;4.630;2024-02-21T04:29:09;9.80;99.90
23873;DHT22;42884;50.718;4.630;2024-02-21T04:31:35;9.80;99.90
23873;DHT22;42884;50.718;4.630;2024-02-21T04:34:01;9.80;99.90
23873;DHT22;42884;50.718;4.630;2024-02-21T04:36:28;9.90;99.90
23873;DHT22;42884;50.718;4.630;2024-02-21T04:38:54;10.00;99.90
23873;DHT22;42884;50.718;4.630;2024-02-21T04:41:19;9.90;99.90
23873;DHT22;42884;50.718;4.630;2024-02-21T04:43:48;9.80;99.90
23873;DHT22;42884;50.718;4.630;2024-02-21T04:46:14;9.70;99.90
23873;DHT22;42884;50.718;4.630;2024-02-21T04:48:39;9.60;99.90
23873;DHT22;42884;50.718;4.630;2024-02-21T04:51:05;9.60;99.90
23873;DHT22;42884;50.718;4.630;2024-02-21T04:53:31;9.70;99.90
23873;DHT22;42884;50.718;4.630;2024-02-21T04:55:56;9.60;99.90
23873;DHT22;42884;50.718;4.630;2024-02-21T04:58:22;9.70;99.90
23873;DHT22;42884;50.718;4.630;2024-02-21T05:00:48;9.70;99.90
23873;DHT22;42884;50.718;4.630;2024-02-21T05:03:14;9.80;99.90
23873;DHT22;42884;50.718;4.630;2024-02-21T05:05:39;9.70;99.90
23873;DHT22;42884;50.718;4.630;2024-02-21T05:08:05;9.70;99.90
23873;DHT22;42884;50.718;4.630;2024-02-21T05:10:31;9.60;99.90
23873;DHT22;42884;50.718;4.630;2024-02-21T05:12:57;9.60;99.90
23873;DHT22;42884;50.718;4.630;2024-02-21T05:15:23;9.70;99.90
23873;DHT22;42884;50.718;4.630;2024-02-21T05:17:49;9.70;99.90
23873;DHT22;42884;50.718;4.630;2024-02-21T05:20:15;9.60;99.90
23873;DHT22;42884;50.718;4.630;2024-02-21T05:22:40;9.60;99.90
23873;DHT22;42884;50.718;4.630;2024-02-21T05:25:07;9.60;99.90
23873;DHT22;42884;50.718;4.630;2024-02-21T05:27:32;9.60;99.90
23873;DHT22;42884;50.718;4.630;2024-02-21T05:29:58;9.70;99.90
23873;DHT22;42884;50.718;4.630;2024-02-21T05:32:25;9.60;99.90
23873;DHT22;42884;50.718;4.630;2024-02-21T05:34:51;9.60;99.90
23873;DHT22;42884;50.718;4.630;2024-02-21T05:37:16;9.60;99.90
23873;DHT22;42884;50.718;4.630;2024-02-21T05:39:42;9.60;99.90
23873;DHT22;42884;50.718;4.630;2024-02-21T05:42:09;9.80;99.90
23873;DHT22;42884;50.718;4.630;2024-02-21T05:44:34;9.70;99.90
23873;DHT22;42884;50.718;4.630;2024-02-21T05:47:00;9.70;99.90
23873;DHT22;42884;50.718;4.630;2024-02-21T05:49:26;9.60;99.90
23873;DHT22;42884;50.718;4.630;2024-02-21T05:51:52;9.60;99.90
23873;DHT22;42884;50.718;4.630;2024-02-21T05:54:17;9.60;99.90
23873;DHT22;42884;50.718;4.630;2024-02-21T05:56:46;9.60;99.90
23873;DHT22;42884;50.718;4.630;2024-02-21T05:59:12;9.80;99.90
23873;DHT22;42884;50.718;4.630;2024-02-21T06:01:38;9.80;99.90
23873;DHT22;42884;50.718;4.630;2024-02-21T06:04:04;9.70;99.90
23873;DHT22;42884;50.718;4.630;2024-02-21T06:06:30;9.70;99.90
23873;DHT22;42884;50.718;4.630;2024-02-21T06:08:56;9.70;99.90
23873;DHT22;42884;50.718;4.630;2024-02-21T06:11:21;9.70;99.90
23873;DHT22;42884;50.718;4.630;2024-02-21T06:13:47;9.60;99.90
23873;DHT22;42884;50.718;4.630;2024-02-21T06:16:13;9.60;99.90
23873;DHT22;42884;50.718;4.630;2024-02-21T06:18:39;9.70;99.90
23873;DHT22;42884;50.718;4.630;2024-02-21T06:21:05;9.60;99.90
23873;DHT22;42884;50.718;4.630;2024-02-21T06:23:30;9.50;99.90
23873;DHT22;42884;50.718;4.630;2024-02-21T06:25:56;9.40;99.90
23873;DHT22;42884;50.718;4.630;2024-02-21T06:28:22;9.40;99.90
23873;DHT22;42884;50.718;4.630;2024-02-21T06:30:47;9.50;99.90
23873;DHT22;42884;50.718;4.630;2024-02-21T06:33:13;9.50;99.90
23873;DHT22;42884;50.718;4.630;2024-02-21T06:35:39;9.50;99.90
23873;DHT22;42884;50.718;4.630;2024-02-21T06:38:07;9.40;99.90
23873;DHT22;42884;50.718;4.630;2024-02-21T06:40:33;9.50;99.90
23873;DHT22;42884;50.718;4.630;2024-02-21T06:43:04;9.50;99.90
23873;DHT22;42884;50.718;4.630;2024-02-21T06:45:30;9.50;99.90
23873;DHT22;42884;50.718;4.630;2024-02-21T06:47:55;9.50;99.90
23873;DHT22;42884;50.718;4.630;2024-02-21T06:50:21;9.50;99.90
23873;DHT22;42884;50.718;4.630;2024-02-21T06:52:47;9.40;99.90
23873;DHT22;42884;50.718;4.630;2024-02-21T06:55:12;9.40;99.90
23873;DHT22;42884;50.718;4.630;2024-02-21T06:57:38;9.40;99.90
23873;DHT22;42884;50.718;4.630;2024-02-21T07:00:04;9.40;99.90
23873;DHT22;42884;50.718;4.630;2024-02-21T07:02:35;9.40;99.90
23873;DHT22;42884;50.718;4.630;2024-02-21T07:05:00;9.40;99.90
23873;DHT22;42884;50.718;4.630;2024-02-21T07:07:26;9.40;99.90
23873;DHT22;42884;50.718;4.630;2024-02-21T07:09:52;9.30;99.90
23873;DHT22;42884;50.718;4.630;2024-02-21T07:12:19;9.30;99.90
23873;DHT22;42884;50.718;4.630;2024-02-21T07:14:45;9.30;99.90
23873;DHT22;42884;50.718;4.630;2024-02-21T07:17:10;9.30;99.90
23873;DHT22;42884;50.718;4.630;2024-02-21T07:19:36;9.50;99.90
23873;DHT22;42884;50.718;4.630;2024-02-21T07:22:02;9.40;99.90
23873;DHT22;42884;50.718;4.630;2024-02-21T07:24:28;9.50;99.90
23873;DHT22;42884;50.718;4.630;2024-02-21T07:26:54;9.40;99.90
23873;DHT22;42884;50.718;4.630;2024-02-21T07:29:19;9.40;99.90
23873;DHT22;42884;50.718;4.630;2024-02-21T07:31:45;9.30;99.90
23873;DHT22;42884;50.718;4.630;2024-02-21T07:34:11;9.40;99.90
23873;DHT22;42884;50.718;4.630;2024-02-21T07:36:36;9.40;99.90
23873;DHT22;42884;50.718;4.630;2024-02-21T07:39:08;9.40;99.90
23873;DHT22;42884;50.718;4.630;2024-02-21T07:41:34;9.50;99.90
23873;DHT22;42884;50.718;4.630;2024-02-21T07:44:00;9.40;99.90
23873;DHT22;42884;50.718;4.630;2024-02-21T07:46:26;9.30;99.90
23873;DHT22;42884;50.718;4.630;2024-02-21T07:48:51;9.40;99.90
23873;DHT22;42884;50.718;4.630;2024-02-21T07:51:17;9.50;99.90
23873;DHT22;42884;50.718;4.630;2024-02-21T07:53:44;9.50;99.90
23873;DHT22;42884;50.718;4.630;2024-02-21T07:56:19;9.60;99.90
23873;DHT22;42884;50.718;4.630;2024-02-21T07:58:45;9.50;99.90
23873;DHT22;42884;50.718;4.630;2024-02-21T08:01:11;9.50;99.90
23873;DHT22;42884;50.718;4.630;2024-02-21T08:03:37;9.50;99.90
23873;DHT22;42884;50.718;4.630;2024-02-21T08:06:03;9.50;99.90
23873;DHT22;42884;50.718;4.630;2024-02-21T08:08:29;9.40;99.90
23873;DHT22;42884;50.718;4.630;2024-02-21T08:10:55;9.40;99.90
23873;DHT22;42884;50.718;4.630;2024-02-21T08:13:21;9.50;99.90
23873;DHT22;42884;50.718;4.630;2024-02-21T08:15:47;9.40;99.90
23873;DHT22;42884;50.718;4.630;2024-02-21T08:18:12;9.40;99.90
23873;DHT22;42884;50.718;4.630;2024-02-21T08:20:38;9.40;99.90
23873;DHT22;42884;50.718;4.630;2024-02-21T08:23:04;9.40;99.90
23873;DHT22;42884;50.718;4.630;2024-02-21T08:25:29;9.40;99.90
23873;DHT22;42884;50.718;4.630;2024-02-21T08:27:58;9.50;99.90
23873;DHT22;42884;50.718;4.630;2024-02-21T08:30:24;9.50;99.90
23873;DHT22;42884;50.718;4.630;2024-02-21T08:32:50;9.50;99.90
23873;DHT22;42884;50.718;4.630;2024-02-21T08:35:16;9.50;99.90
23873;DHT22;42884;50.718;4.630;2024-02-21T08:37:44;9.40;99.90
23873;DHT22;42884;50.718;4.630;2024-02-21T08:40:10;9.50;99.90
23873;DHT22;42884;50.718;4.630;2024-02-21T08:42:36;9.60;99.90
23873;DHT22;42884;50.718;4.630;2024-02-21T08:45:04;9.60;99.90
23873;DHT22;42884;50.718;4.630;2024-02-21T08:47:30;9.60;99.90
23873;DHT22;42884;50.718;4.630;2024-02-21T08:49:56;9.70;99.90
23873;DHT22;42884;50.718;4.630;2024-02-21T08:52:22;9.70;99.90
23873;DHT22;42884;50.718;4.630;2024-02-21T08:54:47;9.70;99.90
23873;DHT22;42884;50.718;4.630;2024-02-21T08:57:13;9.70;99.90
23873;DHT22;42884;50.718;4.630;2024-02-21T08:59:40;9.70;99.90
23873;DHT22;42884;50.718;4.630;2024-02-21T09:02:05;9.70;99.90
23873;DHT22;42884;50.718;4.630;2024-02-21T09:04:33;9.80;99.90
23873;DHT22;42884;50.718;4.630;2024-02-21T09:06:59;9.90;99.90
23873;DHT22;42884;50.718;4.630;2024-02-21T09:09:25;9.90;99.90
23873;DHT22;42884;50.718;4.630;2024-02-21T09:11:50;9.90;99.90
23873;DHT22;42884;50.718;4.630;2024-02-21T09:14:17;9.90;99.90
23873;DHT22;42884;50.718;4.630;2024-02-21T09:16:42;10.00;99.90
23873;DHT22;42884;50.718;4.630;2024-02-21T09:19:09;9.90;99.90
23873;DHT22;42884;50.718;4.630;2024-02-21T09:21:37;10.00;99.90
23873;DHT22;42884;50.718;4.630;2024-02-21T09:24:03;10.10;99.90
23873;DHT22;42884;50.718;4.630;2024-02-21T09:26:29;9.90;99.90
23873;DHT22;42884;50.718;4.630;2024-02-21T09:28:55;10.00;99.90
23873;DHT22;42884;50.718;4.630;2024-02-21T09:31:20;10.10;99.90
23873;DHT22;42884;50.718;4.630;2024-02-21T09:33:46;10.10;99.90
23873;DHT22;42884;50.718;4.630;2024-02-21T09:36:12;10.20;99.90
23873;DHT22;42884;50.718;4.630;2024-02-21T09:38:40;10.20;99.90
23873;DHT22;42884;50.718;4.630;2024-02-21T09:43:41;10.20;99.90
23873;DHT22;42884;50.718;4.630;2024-02-21T09:46:08;10.30;99.90
23873;DHT22;42884;50.718;4.630;2024-02-21T09:48:52;10.30;99.90
23873;DHT22;42884;50.718;4.630;2024-02-21T09:51:23;10.20;99.90
23873;DHT22;42884;50.718;4.630;2024-02-21T09:53:50;10.30;99.90
23873;DHT22;42884;50.718;4.630;2024-02-21T09:56:17;10.50;99.90
23873;DHT22;42884;50.718;4.630;2024-02-21T09:58:42;10.50;99.90
23873;DHT22;42884;50.718;4.630;2024-02-21T10:01:08;10.60;99.90
23873;DHT22;42884;50.718;4.630;2024-02-21T10:03:34;10.60;99.90
23873;DHT22;42884;50.718;4.630;2024-02-21T10:06:00;10.60;99.90
23873;DHT22;42884;50.718;4.630;2024-02-21T10:08:27;10.60;99.90
23873;DHT22;42884;50.718;4.630;2024-02-21T10:10:52;10.60;99.90
23873;DHT22;42884;50.718;4.630;2024-02-21T10:13:26;10.70;99.90
23873;DHT22;42884;50.718;4.630;2024-02-21T10:18:32;10.80;99.90
23873;DHT22;42884;50.718;4.630;2024-02-21T10:21:07;10.80;99.90
23873;DHT22;42884;50.718;4.630;2024-02-21T10:23:43;10.90;99.90
23873;DHT22;42884;50.718;4.630;2024-02-21T10:26:09;10.90;99.90
23873;DHT22;42884;50.718;4.630;2024-02-21T10:28:35;10.90;99.90
23873;DHT22;42884;50.718;4.630;2024-02-21T10:31:02;10.90;99.90
23873;DHT22;42884;50.718;4.630;2024-02-21T10:33:27;11.00;99.90
23873;DHT22;42884;50.718;4.630;2024-02-21T10:35:53;11.20;99.90
23873;DHT22;42884;50.718;4.630;2024-02-21T10:38:19;11.10;99.90
23873;DHT22;42884;50.718;4.630;2024-02-21T10:40:46;11.10;99.90
23873;DHT22;42884;50.718;4.630;2024-02-21T10:43:14;11.20;99.90
23873;DHT22;42884;50.718;4.630;2024-02-21T10:45:41;11.10;99.90
23873;DHT22;42884;50.718;4.630;2024-02-21T10:48:13;11.10;99.90
23873;DHT22;42884;50.718;4.630;2024-02-21T10:58:40;11.30;99.90
23873;DHT22;42884;50.718;4.630;2024-02-21T11:01:08;11.30;99.90
23873;DHT22;42884;50.718;4.630;2024-02-21T11:03:34;11.30;99.90
23873;DHT22;42884;50.718;4.630;2024-02-21T11:06:01;11.40;99.90
23873;DHT22;42884;50.718;4.630;2024-02-21T11:08:27;11.50;99.90
23873;DHT22;42884;50.718;4.630;2024-02-21T11:10:57;11.40;99.90
23873;DHT22;42884;50.718;4.630;2024-02-21T11:13:35;11.60;99.90
23873;DHT22;42884;50.718;4.630;2024-02-21T11:16:11;11.60;99.90
23873;DHT22;42884;50.718;4.630;2024-02-21T11:18:40;11.60;99.90
23873;DHT22;42884;50.718;4.630;2024-02-21T11:21:06;11.50;99.90
23873;DHT22;42884;50.718;4.630;2024-02-21T11:23:32;11.40;99.90
23873;DHT22;42884;50.718;4.630;2024-02-21T11:26:05;11.50;99.90
23873;DHT22;42884;50.718;4.630;2024-02-21T11:28:31;11.60;99.90
23873;DHT22;42884;50.718;4.630;2024-02-21T11:31:17;11.70;99.90
23873;DHT22;42884;50.718;4.630;2024-02-21T11:33:47;11.50;99.90
23873;DHT22;42884;50.718;4.630;2024-02-21T11:36:25;11.60;99.90
23873;DHT22;42884;50.718;4.630;2024-02-21T11:38:51;11.70;99.90
23873;DHT22;42884;50.718;4.630;2024-02-21T11:41:17;11.80;99.90
23873;DHT22;42884;50.718;4.630;2024-02-21T11:43:43;11.80;99.90
23873;DHT22;42884;50.718;4.630;2024-02-21T11:46:09;11.50;99.90
23873;DHT22;42884;50.718;4.630;2024-02-21T11:48:35;11.40;99.90
23873;DHT22;42884;50.718;4.630;2024-02-21T11:51:00;11.50;99.90
23873;DHT22;42884;50.718;4.630;2024-02-21T11:53:26;11.50;99.90
23873;DHT22;42884;50.718;4.630;2024-02-21T11:55:56;11.50;99.90
23873;DHT22;42884;50.718;4.630;2024-02-21T11:58:22;11.50;99.90
23873;DHT22;42884;50.718;4.630;2024-02-21T12:00:48;11.50;99.90
23873;DHT22;42884;50.718;4.630;2024-02-21T12:03:14;11.50;99.90
23873;DHT22;42884;50.718;4.630;2024-02-21T12:05:41;11.50;99.90
23873;DHT22;42884;50.718;4.630;2024-02-21T12:08:07;11.40;99.90
23873;DHT22;42884;50.718;4.630;2024-02-21T12:10:35;11.40;99.90
23873;DHT22;42884;50.718;4.630;2024-02-21T12:13:10;11.30;99.90
23873;DHT22;42884;50.718;4.630;2024-02-21T12:15:38;11.30;99.90
23873;DHT22;42884;50.718;4.630;2024-02-21T12:18:05;11.30;99.90
23873;DHT22;42884;50.718;4.630;2024-02-21T12:20:31;11.20;99.90
23873;DHT22;42884;50.718;4.630;2024-02-21T12:23:00;11.30;99.90
23873;DHT22;42884;50.718;4.630;2024-02-21T12:25:26;11.40;99.90
23873;DHT22;42884;50.718;4.630;2024-02-21T12:27:52;11.50;99.90
23873;DHT22;42884;50.718;4.630;2024-02-21T12:30:18;11.60;99.90
23873;DHT22;42884;50.718;4.630;2024-02-21T12:32:45;11.50;99.90
23873;DHT22;42884;50.718;4.630;2024-02-21T12:35:11;11.50;99.90
23873;DHT22;42884;50.718;4.630;2024-02-21T12:37:37;11.40;99.90
23873;DHT22;42884;50.718;4.630;2024-02-21T12:40:05;11.40;99.90
23873;DHT22;42884;50.718;4.630;2024-02-21T12:42:33;11.50;99.90
23873;DHT22;42884;50.718;4.630;2024-02-21T12:44:59;11.50;99.90
23873;DHT22;42884;50.718;4.630;2024-02-21T12:47:24;11.70;99.90
23873;DHT22;42884;50.718;4.630;2024-02-21T12:49:52;11.60;99.90
23873;DHT22;42884;50.718;4.630;2024-02-21T12:52:18;11.60;99.90
23873;DHT22;42884;50.718;4.630;2024-02-21T12:54:44;11.60;99.90
23873;DHT22;42884;50.718;4.630;2024-02-21T12:57:10;11.60;99.90
23873;DHT22;42884;50.718;4.630;2024-02-21T12:59:36;11.60;99.90
23873;DHT22;42884;50.718;4.630;2024-02-21T13:02:03;11.60;99.90
23873;DHT22;42884;50.718;4.630;2024-02-21T13:04:28;11.60;99.90
23873;DHT22;42884;50.718;4.630;2024-02-21T13:06:54;11.70;99.90
23873;DHT22;42884;50.718;4.630;2024-02-21T13:09:21;11.80;99.90
23873;DHT22;42884;50.718;4.630;2024-02-21T13:11:47;11.80;99.90
23873;DHT22;42884;50.718;4.630;2024-02-21T13:14:13;11.70;99.90
23873;DHT22;42884;50.718;4.630;2024-02-21T13:16:39;11.80;99.90
23873;DHT22;42884;50.718;4.630;2024-02-21T13:19:08;11.70;99.90
23873;DHT22;42884;50.718;4.630;2024-02-21T13:21:37;11.60;99.90
23873;DHT22;42884;50.718;4.630;2024-02-21T13:24:03;11.60;99.90
23873;DHT22;42884;50.718;4.630;2024-02-21T13:26:29;11.50;99.90
23873;DHT22;42884;50.718;4.630;2024-02-21T13:28:55;11.30;99.90
23873;DHT22;42884;50.718;4.630;2024-02-21T13:31:21;11.30;99.90
23873;DHT22;42884;50.718;4.630;2024-02-21T13:33:46;11.30;99.90
23873;DHT22;42884;50.718;4.630;2024-02-21T13:36:12;11.30;99.90
23873;DHT22;42884;50.718;4.630;2024-02-21T13:38:38;11.20;99.90
23873;DHT22;42884;50.718;4.630;2024-02-21T13:41:05;11.20;99.90
23873;DHT22;42884;50.718;4.630;2024-02-21T13:43:32;11.30;99.90
23873;DHT22;42884;50.718;4.630;2024-02-21T13:45:59;11.30;99.90
23873;DHT22;42884;50.718;4.630;2024-02-21T13:48:25;11.20;99.90
23873;DHT22;42884;50.718;4.630;2024-02-21T13:50:52;11.10;99.90
23873;DHT22;42884;50.718;4.630;2024-02-21T13:53:18;11.20;99.90
23873;DHT22;42884;50.718;4.630;2024-02-21T13:55:45;11.10;99.90
23873;DHT22;42884;50.718;4.630;2024-02-21T13:58:11;11.30;99.90
23873;DHT22;42884;50.718;4.630;2024-02-21T14:00:36;11.30;99.90
23873;DHT22;42884;50.718;4.630;2024-02-21T14:03:03;11.40;99.90
23873;DHT22;42884;50.718;4.630;2024-02-21T14:05:28;11.40;99.90
23873;DHT22;42884;50.718;4.630;2024-02-21T14:07:54;11.40;99.90
23873;DHT22;42884;50.718;4.630;2024-02-21T14:10:21;11.40;99.90
23873;DHT22;42884;50.718;4.630;2024-02-21T14:12:47;11.30;99.90
23873;DHT22;42884;50.718;4.630;2024-02-21T14:15:15;11.30;99.90
23873;DHT22;42884;50.718;4.630;2024-02-21T14:17:42;11.30;99.90
23873;DHT22;42884;50.718;4.630;2024-02-21T14:20:08;11.20;99.90
23873;DHT22;42884;50.718;4.630;2024-02-21T14:22:34;11.10;99.90
23873;DHT22;42884;50.718;4.630;2024-02-21T14:25:00;11.10;99.90
23873;DHT22;42884;50.718;4.630;2024-02-21T14:27:26;11.10;99.90
23873;DHT22;42884;50.718;4.630;2024-02-21T14:29:52;10.90;99.90
23873;DHT22;42884;50.718;4.630;2024-02-21T14:32:18;10.90;99.90
23873;DHT22;42884;50.718;4.630;2024-02-21T14:34:45;10.70;99.90
23873;DHT22;42884;50.718;4.630;2024-02-21T14:37:11;10.70;99.90
23873;DHT22;42884;50.718;4.630;2024-02-21T14:39:37;10.70;99.90
23873;DHT22;42884;50.718;4.630;2024-02-21T14:42:03;10.80;99.90
23873;DHT22;42884;50.718;4.630;2024-02-21T14:44:29;10.70;99.90
23873;DHT22;42884;50.718;4.630;2024-02-21T14:46:54;10.60;99.90
23873;DHT22;42884;50.718;4.630;2024-02-21T14:49:20;10.70;99.90
23873;DHT22;42884;50.718;4.630;2024-02-21T14:51:46;10.70;99.90
23873;DHT22;42884;50.718;4.630;2024-02-21T14:54:12;10.60;99.90
23873;DHT22;42884;50.718;4.630;2024-02-21T14:56:37;10.60;99.90
23873;DHT22;42884;50.718;4.630;2024-02-21T14:59:04;10.60;99.90
23873;DHT22;42884;50.718;4.630;2024-02-21T15:01:35;10.60;99.90
23873;DHT22;42884;50.718;4.630;2024-02-21T15:04:03;10.50;99.90
23873;DHT22;42884;50.718;4.630;2024-02-21T15:06:29;10.40;99.90
23873;DHT22;42884;50.718;4.630;2024-02-21T15:08:57;10.40;99.90
23873;DHT22;42884;50.718;4.630;2024-02-21T15:11:23;10.40;99.90
23873;DHT22;42884;50.718;4.630;2024-02-21T15:13:49;10.40;99.90
23873;DHT22;42884;50.718;4.630;2024-02-21T15:16:15;10.50;99.90
23873;DHT22;42884;50.718;4.630;2024-02-21T15:18:41;10.50;99.90
23873;DHT22;42884;50.718;4.630;2024-02-21T15:21:07;10.50;99.90
23873;DHT22;42884;50.718;4.630;2024-02-21T15:23:38;10.40;99.90
23873;DHT22;42884;50.718;4.630;2024-02-21T15:26:04;10.60;99.90
23873;DHT22;42884;50.718;4.630;2024-02-21T15:28:30;10.40;99.90
23873;DHT22;42884;50.718;4.630;2024-02-21T15:30:56;10.30;99.90
23873;DHT22;42884;50.718;4.630;2024-02-21T15:33:22;10.40;99.90
23873;DHT22;42884;50.718;4.630;2024-02-21T15:35:48;10.40;99.90
23873;DHT22;42884;50.718;4.630;2024-02-21T15:38:14;10.10;99.90
23873;DHT22;42884;50.718;4.630;2024-02-21T15:40:39;10.10;99.90
23873;DHT22;42884;50.718;4.630;2024-02-21T15:43:05;10.10;99.90
23873;DHT22;42884;50.718;4.630;2024-02-21T15:45:31;10.00;99.90